Terminal Aerodrome Forecast
Issued by NWS

Home | Current Version | Previous Version | Text Only | Print | Product List | Glossary On
Versions: 1 2 3 4 5 6 7 8 9 10 11 12 13 14
702
FTUS41 KLWX 032331
TAFMTN
TAF
KMTN 032331Z 0400/0424 07006KT P6SM -SHRA OVC015
     FM040100 07005KT P6SM -SHRA OVC008
     FM040300 07005KT P6SM -SHRA OVC008
     FM040600 08004KT P6SM OVC008
     FM040800 VRB03KT 3SM BR OVC003
     FM041300 06005KT P6SM OVC008
     FM041800 06005KT P6SM OVC008
      AMD NOT SKED 0402/0412=

USA.gov is the U.S. government's official web portal to all federal, state and local government web resources and services.